sensor_id;sensor_type;location;lat;lon;timestamp;P1;durP1;ratioP1;P2;durP2;ratioP2
82475;SDS011;72099;43.176;76.872;2024-01-30T00:01:56;11.60;;;5.65;;
82475;SDS011;72099;43.176;76.872;2024-01-30T00:04:57;13.23;;;5.50;;
82475;SDS011;72099;43.176;76.872;2024-01-30T00:07:57;9.05;;;4.95;;
82475;SDS011;72099;43.176;76.872;2024-01-30T00:10:58;9.02;;;5.13;;
82475;SDS011;72099;43.176;76.872;2024-01-30T00:13:59;8.90;;;4.15;;
82475;SDS011;72099;43.176;76.872;2024-01-30T00:17:00;8.02;;;4.13;;
82475;SDS011;72099;43.176;76.872;2024-01-30T00:20:01;8.10;;;4.05;;
82475;SDS011;72099;43.176;76.872;2024-01-30T00:23:05;7.40;;;3.53;;
82475;SDS011;72099;43.176;76.872;2024-01-30T00:26:06;6.20;;;4.07;;
82475;SDS011;72099;43.176;76.872;2024-01-30T00:29:07;5.95;;;3.30;;
82475;SDS011;72099;43.176;76.872;2024-01-30T00:32:07;6.55;;;3.40;;
82475;SDS011;72099;43.176;76.872;2024-01-30T00:35:08;6.18;;;3.25;;
82475;SDS011;72099;43.176;76.872;2024-01-30T00:38:10;5.35;;;3.00;;
82475;SDS011;72099;43.176;76.872;2024-01-30T00:41:11;6.25;;;2.95;;
82475;SDS011;72099;43.176;76.872;2024-01-30T00:44:12;11.27;;;5.63;;
82475;SDS011;72099;43.176;76.872;2024-01-30T00:47:13;17.15;;;8.10;;
82475;SDS011;72099;43.176;76.872;2024-01-30T00:50:14;22.70;;;9.68;;
82475;SDS011;72099;43.176;76.872;2024-01-30T00:53:15;33.08;;;14.57;;
82475;SDS011;72099;43.176;76.872;2024-01-30T00:56:15;43.47;;;18.38;;
82475;SDS011;72099;43.176;76.872;2024-01-30T00:59:18;54.13;;;22.08;;
82475;SDS011;72099;43.176;76.872;2024-01-30T01:02:19;55.67;;;23.75;;
82475;SDS011;72099;43.176;76.872;2024-01-30T01:05:20;52.83;;;21.65;;
82475;SDS011;72099;43.176;76.872;2024-01-30T01:08:21;51.80;;;21.83;;
82475;SDS011;72099;43.176;76.872;2024-01-30T01:11:22;54.58;;;22.70;;
82475;SDS011;72099;43.176;76.872;2024-01-30T01:14:23;57.55;;;22.63;;
82475;SDS011;72099;43.176;76.872;2024-01-30T01:17:24;52.35;;;20.83;;
82475;SDS011;72099;43.176;76.872;2024-01-30T01:20:24;39.58;;;17.95;;
82475;SDS011;72099;43.176;76.872;2024-01-30T01:23:25;45.78;;;19.10;;
82475;SDS011;72099;43.176;76.872;2024-01-30T01:26:26;42.30;;;18.30;;
82475;SDS011;72099;43.176;76.872;2024-01-30T01:29:27;36.83;;;16.65;;
82475;SDS011;72099;43.176;76.872;2024-01-30T01:32:31;28.02;;;12.27;;
82475;SDS011;72099;43.176;76.872;2024-01-30T01:35:31;28.60;;;11.27;;
82475;SDS011;72099;43.176;76.872;2024-01-30T01:38:32;30.65;;;13.13;;
82475;SDS011;72099;43.176;76.872;2024-01-30T01:41:33;28.77;;;12.85;;
82475;SDS011;72099;43.176;76.872;2024-01-30T01:44:34;28.23;;;11.60;;
82475;SDS011;72099;43.176;76.872;2024-01-30T01:47:35;21.08;;;7.80;;
82475;SDS011;72099;43.176;76.872;2024-01-30T01:50:36;17.17;;;6.95;;
82475;SDS011;72099;43.176;76.872;2024-01-30T01:53:37;17.83;;;7.50;;
82475;SDS011;72099;43.176;76.872;2024-01-30T01:56:38;13.88;;;6.22;;
82475;SDS011;72099;43.176;76.872;2024-01-30T01:59:40;11.60;;;5.35;;
82475;SDS011;72099;43.176;76.872;2024-01-30T02:02:41;9.30;;;5.43;;
82475;SDS011;72099;43.176;76.872;2024-01-30T02:05:45;11.88;;;5.50;;
82475;SDS011;72099;43.176;76.872;2024-01-30T02:08:46;10.98;;;5.57;;
82475;SDS011;72099;43.176;76.872;2024-01-30T02:11:47;10.35;;;4.70;;
82475;SDS011;72099;43.176;76.872;2024-01-30T02:14:48;9.40;;;5.40;;
82475;SDS011;72099;43.176;76.872;2024-01-30T02:17:49;7.75;;;4.50;;
82475;SDS011;72099;43.176;76.872;2024-01-30T02:20:50;8.75;;;4.18;;
82475;SDS011;72099;43.176;76.872;2024-01-30T02:23:56;10.50;;;4.78;;
82475;SDS011;72099;43.176;76.872;2024-01-30T02:26:58;7.32;;;4.28;;
82475;SDS011;72099;43.176;76.872;2024-01-30T02:29:59;10.25;;;4.75;;
82475;SDS011;72099;43.176;76.872;2024-01-30T02:33:00;6.70;;;3.97;;
82475;SDS011;72099;43.176;76.872;2024-01-30T02:36:01;9.10;;;4.63;;
82475;SDS011;72099;43.176;76.872;2024-01-30T02:39:02;7.05;;;4.20;;
82475;SDS011;72099;43.176;76.872;2024-01-30T02:42:03;8.30;;;4.18;;
82475;SDS011;72099;43.176;76.872;2024-01-30T02:45:05;8.65;;;4.50;;
82475;SDS011;72099;43.176;76.872;2024-01-30T02:48:06;6.90;;;3.75;;
82475;SDS011;72099;43.176;76.872;2024-01-30T02:51:07;8.73;;;4.50;;
82475;SDS011;72099;43.176;76.872;2024-01-30T02:54:08;7.65;;;3.90;;
82475;SDS011;72099;43.176;76.872;2024-01-30T02:57:09;8.82;;;5.13;;
82475;SDS011;72099;43.176;76.872;2024-01-30T03:00:18;6.88;;;4.22;;
82475;SDS011;72099;43.176;76.872;2024-01-30T03:03:19;6.65;;;3.83;;
82475;SDS011;72099;43.176;76.872;2024-01-30T03:06:20;8.95;;;5.13;;
82475;SDS011;72099;43.176;76.872;2024-01-30T03:13:01;9.15;;;4.28;;
82475;SDS011;72099;43.176;76.872;2024-01-30T03:16:01;7.22;;;4.18;;
82475;SDS011;72099;43.176;76.872;2024-01-30T03:19:03;7.35;;;3.95;;
82475;SDS011;72099;43.176;76.872;2024-01-30T03:22:05;6.68;;;4.05;;
82475;SDS011;72099;43.176;76.872;2024-01-30T03:25:06;7.00;;;3.63;;
82475;SDS011;72099;43.176;76.872;2024-01-30T03:28:07;6.95;;;3.90;;
82475;SDS011;72099;43.176;76.872;2024-01-30T03:31:08;7.68;;;4.28;;
82475;SDS011;72099;43.176;76.872;2024-01-30T03:34:09;6.80;;;3.80;;
82475;SDS011;72099;43.176;76.872;2024-01-30T03:37:09;7.05;;;4.10;;
82475;SDS011;72099;43.176;76.872;2024-01-30T03:40:10;7.60;;;4.10;;
82475;SDS011;72099;43.176;76.872;2024-01-30T03:43:11;10.20;;;4.85;;
82475;SDS011;72099;43.176;76.872;2024-01-30T03:46:12;8.15;;;4.53;;
82475;SDS011;72099;43.176;76.872;2024-01-30T03:49:13;11.85;;;5.20;;
82475;SDS011;72099;43.176;76.872;2024-01-30T03:52:14;10.80;;;5.47;;
82475;SDS011;72099;43.176;76.872;2024-01-30T03:55:15;10.30;;;5.47;;
82475;SDS011;72099;43.176;76.872;2024-01-30T03:58:16;9.80;;;4.40;;
82475;SDS011;72099;43.176;76.872;2024-01-30T04:01:17;10.10;;;5.40;;
82475;SDS011;72099;43.176;76.872;2024-01-30T04:04:18;8.07;;;4.10;;
82475;SDS011;72099;43.176;76.872;2024-01-30T04:07:19;8.98;;;5.05;;
82475;SDS011;72099;43.176;76.872;2024-01-30T04:10:20;10.63;;;4.88;;
82475;SDS011;72099;43.176;76.872;2024-01-30T04:13:21;10.80;;;5.63;;
82475;SDS011;72099;43.176;76.872;2024-01-30T04:16:22;8.30;;;4.53;;
82475;SDS011;72099;43.176;76.872;2024-01-30T04:22:24;10.23;;;4.50;;
82475;SDS011;72099;43.176;76.872;2024-01-30T04:25:25;10.05;;;5.95;;
82475;SDS011;72099;43.176;76.872;2024-01-30T04:28:25;11.25;;;5.70;;
82475;SDS011;72099;43.176;76.872;2024-01-30T04:31:26;9.98;;;5.38;;
82475;SDS011;72099;43.176;76.872;2024-01-30T04:34:27;12.20;;;5.93;;
82475;SDS011;72099;43.176;76.872;2024-01-30T04:37:28;12.65;;;5.57;;
82475;SDS011;72099;43.176;76.872;2024-01-30T04:40:29;11.48;;;5.25;;
82475;SDS011;72099;43.176;76.872;2024-01-30T04:43:30;12.32;;;5.78;;
82475;SDS011;72099;43.176;76.872;2024-01-30T04:46:31;17.52;;;7.43;;
82475;SDS011;72099;43.176;76.872;2024-01-30T04:49:32;15.48;;;6.55;;
82475;SDS011;72099;43.176;76.872;2024-01-30T04:52:33;15.95;;;6.82;;
82475;SDS011;72099;43.176;76.872;2024-01-30T04:55:34;14.40;;;5.75;;
82475;SDS011;72099;43.176;76.872;2024-01-30T04:58:36;13.95;;;6.03;;
82475;SDS011;72099;43.176;76.872;2024-01-30T05:01:37;11.85;;;5.88;;
82475;SDS011;72099;43.176;76.872;2024-01-30T05:04:37;12.63;;;6.25;;
82475;SDS011;72099;43.176;76.872;2024-01-30T05:07:38;14.35;;;5.78;;
82475;SDS011;72099;43.176;76.872;2024-01-30T05:10:41;10.77;;;5.18;;
82475;SDS011;72099;43.176;76.872;2024-01-30T05:13:42;12.38;;;5.10;;
82475;SDS011;72099;43.176;76.872;2024-01-30T05:16:43;9.70;;;5.38;;
82475;SDS011;72099;43.176;76.872;2024-01-30T05:19:46;10.55;;;5.18;;
82475;SDS011;72099;43.176;76.872;2024-01-30T05:22:47;9.95;;;4.95;;
82475;SDS011;72099;43.176;76.872;2024-01-30T05:25:48;9.43;;;5.20;;
82475;SDS011;72099;43.176;76.872;2024-01-30T05:28:49;10.80;;;4.85;;
82475;SDS011;72099;43.176;76.872;2024-01-30T05:31:50;29.30;;;15.57;;
82475;SDS011;72099;43.176;76.872;2024-01-30T05:34:51;22.60;;;12.07;;
82475;SDS011;72099;43.176;76.872;2024-01-30T05:37:52;27.88;;;13.20;;
82475;SDS011;72099;43.176;76.872;2024-01-30T05:40:53;46.55;;;23.98;;
82475;SDS011;72099;43.176;76.872;2024-01-30T05:43:53;22.23;;;13.32;;
82475;SDS011;72099;43.176;76.872;2024-01-30T05:46:54;15.75;;;7.32;;
82475;SDS011;72099;43.176;76.872;2024-01-30T05:49:55;16.17;;;7.82;;
82475;SDS011;72099;43.176;76.872;2024-01-30T05:52:56;11.90;;;5.95;;
82475;SDS011;72099;43.176;76.872;2024-01-30T05:55:57;12.13;;;5.78;;
82475;SDS011;72099;43.176;76.872;2024-01-30T05:58:58;11.00;;;5.60;;
82475;SDS011;72099;43.176;76.872;2024-01-30T06:01:59;9.15;;;4.57;;
82475;SDS011;72099;43.176;76.872;2024-01-30T06:04:59;9.40;;;4.47;;
82475;SDS011;72099;43.176;76.872;2024-01-30T06:08:01;6.32;;;3.78;;
82475;SDS011;72099;43.176;76.872;2024-01-30T06:11:02;6.43;;;3.72;;
82475;SDS011;72099;43.176;76.872;2024-01-30T06:14:03;6.85;;;3.67;;
82475;SDS011;72099;43.176;76.872;2024-01-30T06:17:04;7.43;;;4.18;;
82475;SDS011;72099;43.176;76.872;2024-01-30T06:20:05;6.80;;;3.75;;
82475;SDS011;72099;43.176;76.872;2024-01-30T06:26:07;7.53;;;3.85;;
82475;SDS011;72099;43.176;76.872;2024-01-30T06:29:08;10.90;;;5.78;;
82475;SDS011;72099;43.176;76.872;2024-01-30T06:32:09;7.38;;;4.57;;
82475;SDS011;72099;43.176;76.872;2024-01-30T06:35:10;11.75;;;4.88;;
82475;SDS011;72099;43.176;76.872;2024-01-30T06:38:11;9.77;;;4.75;;
82475;SDS011;72099;43.176;76.872;2024-01-30T06:41:13;7.32;;;4.40;;
82475;SDS011;72099;43.176;76.872;2024-01-30T06:44:14;6.95;;;4.55;;
82475;SDS011;72099;43.176;76.872;2024-01-30T06:47:15;8.40;;;4.63;;
82475;SDS011;72099;43.176;76.872;2024-01-30T06:53:40;9.52;;;4.47;;
82475;SDS011;72099;43.176;76.872;2024-01-30T06:56:41;7.22;;;4.32;;
82475;SDS011;72099;43.176;76.872;2024-01-30T06:59:42;11.05;;;5.03;;
82475;SDS011;72099;43.176;76.872;2024-01-30T07:02:44;9.73;;;5.40;;
82475;SDS011;72099;43.176;76.872;2024-01-30T07:05:45;9.88;;;4.82;;
82475;SDS011;72099;43.176;76.872;2024-01-30T07:08:45;8.52;;;4.95;;
82475;SDS011;72099;43.176;76.872;2024-01-30T07:11:46;10.38;;;5.05;;
82475;SDS011;72099;43.176;76.872;2024-01-30T07:14:47;8.25;;;4.47;;
82475;SDS011;72099;43.176;76.872;2024-01-30T07:17:48;9.27;;;5.13;;
82475;SDS011;72099;43.176;76.872;2024-01-30T07:20:49;10.32;;;4.90;;
82475;SDS011;72099;43.176;76.872;2024-01-30T07:23:50;10.50;;;5.25;;
82475;SDS011;72099;43.176;76.872;2024-01-30T07:26:51;7.85;;;4.40;;
82475;SDS011;72099;43.176;76.872;2024-01-30T07:33:24;8.95;;;3.90;;
82475;SDS011;72099;43.176;76.872;2024-01-30T07:36:25;9.88;;;5.30;;
82475;SDS011;72099;43.176;76.872;2024-01-30T07:39:26;9.27;;;4.90;;
82475;SDS011;72099;43.176;76.872;2024-01-30T07:42:27;8.90;;;4.93;;
82475;SDS011;72099;43.176;76.872;2024-01-30T07:45:28;8.90;;;4.47;;
82475;SDS011;72099;43.176;76.872;2024-01-30T07:48:33;8.95;;;4.90;;
82475;SDS011;72099;43.176;76.872;2024-01-30T07:51:34;7.82;;;4.60;;
82475;SDS011;72099;43.176;76.872;2024-01-30T07:54:35;8.82;;;4.68;;
82475;SDS011;72099;43.176;76.872;2024-01-30T07:57:52;6.20;;;4.20;;
82475;SDS011;72099;43.176;76.872;2024-01-30T08:00:53;7.20;;;4.22;;
82475;SDS011;72099;43.176;76.872;2024-01-30T08:03:53;8.00;;;4.20;;
82475;SDS011;72099;43.176;76.872;2024-01-30T08:06:54;9.20;;;4.22;;
82475;SDS011;72099;43.176;76.872;2024-01-30T08:09:55;7.13;;;4.07;;
82475;SDS011;72099;43.176;76.872;2024-01-30T08:12:56;7.22;;;3.97;;
82475;SDS011;72099;43.176;76.872;2024-01-30T08:15:57;8.13;;;4.07;;
82475;SDS011;72099;43.176;76.872;2024-01-30T08:18:58;6.88;;;4.10;;
82475;SDS011;72099;43.176;76.872;2024-01-30T08:21:59;5.93;;;3.67;;
82475;SDS011;72099;43.176;76.872;2024-01-30T08:25:00;8.20;;;4.22;;
82475;SDS011;72099;43.176;76.872;2024-01-30T08:28:01;6.53;;;4.20;;
82475;SDS011;72099;43.176;76.872;2024-01-30T08:31:01;6.97;;;3.65;;
82475;SDS011;72099;43.176;76.872;2024-01-30T08:34:02;6.50;;;3.58;;
82475;SDS011;72099;43.176;76.872;2024-01-30T08:37:03;6.63;;;3.40;;
82475;SDS011;72099;43.176;76.872;2024-01-30T08:40:04;5.70;;;3.42;;
82475;SDS011;72099;43.176;76.872;2024-01-30T08:43:05;6.20;;;3.42;;
82475;SDS011;72099;43.176;76.872;2024-01-30T08:46:06;5.47;;;3.33;;
82475;SDS011;72099;43.176;76.872;2024-01-30T08:49:07;6.05;;;3.47;;
82475;SDS011;72099;43.176;76.872;2024-01-30T08:52:08;4.25;;;2.42;;
82475;SDS011;72099;43.176;76.872;2024-01-30T08:55:09;4.15;;;2.75;;
82475;SDS011;72099;43.176;76.872;2024-01-30T08:58:09;3.05;;;2.33;;
82475;SDS011;72099;43.176;76.872;2024-01-30T09:01:10;4.13;;;2.53;;
82475;SDS011;72099;43.176;76.872;2024-01-30T09:04:11;4.50;;;2.80;;
82475;SDS011;72099;43.176;76.872;2024-01-30T09:07:12;5.28;;;2.25;;
82475;SDS011;72099;43.176;76.872;2024-01-30T09:10:13;4.57;;;2.20;;
82475;SDS011;72099;43.176;76.872;2024-01-30T09:13:14;4.22;;;2.72;;
82475;SDS011;72099;43.176;76.872;2024-01-30T09:16:15;3.53;;;2.28;;
82475;SDS011;72099;43.176;76.872;2024-01-30T09:19:16;3.15;;;2.03;;
82475;SDS011;72099;43.176;76.872;2024-01-30T09:22:17;4.13;;;2.60;;
82475;SDS011;72099;43.176;76.872;2024-01-30T09:25:18;3.42;;;2.33;;
82475;SDS011;72099;43.176;76.872;2024-01-30T09:28:19;3.55;;;2.30;;
82475;SDS011;72099;43.176;76.872;2024-01-30T09:31:19;3.67;;;2.63;;
82475;SDS011;72099;43.176;76.872;2024-01-30T09:34:20;4.22;;;2.50;;
82475;SDS011;72099;43.176;76.872;2024-01-30T09:37:21;5.05;;;3.25;;
82475;SDS011;72099;43.176;76.872;2024-01-30T09:40:22;3.72;;;2.63;;
82475;SDS011;72099;43.176;76.872;2024-01-30T09:43:23;3.67;;;2.63;;
82475;SDS011;72099;43.176;76.872;2024-01-30T09:46:25;5.32;;;2.80;;
82475;SDS011;72099;43.176;76.872;2024-01-30T09:49:33;3.90;;;2.53;;
82475;SDS011;72099;43.176;76.872;2024-01-30T09:52:35;4.13;;;2.63;;
82475;SDS011;72099;43.176;76.872;2024-01-30T09:55:37;4.30;;;2.65;;
82475;SDS011;72099;43.176;76.872;2024-01-30T09:58:38;4.97;;;2.80;;
82475;SDS011;72099;43.176;76.872;2024-01-30T10:01:40;5.07;;;3.30;;
82475;SDS011;72099;43.176;76.872;2024-01-30T10:04:41;4.97;;;3.15;;
82475;SDS011;72099;43.176;76.872;2024-01-30T10:07:49;6.18;;;3.70;;
82475;SDS011;72099;43.176;76.872;2024-01-30T10:10:54;6.15;;;3.88;;
82475;SDS011;72099;43.176;76.872;2024-01-30T10:13:54;4.93;;;3.50;;
82475;SDS011;72099;43.176;76.872;2024-01-30T10:16:57;7.45;;;4.40;;
82475;SDS011;72099;43.176;76.872;2024-01-30T10:19:58;7.72;;;4.53;;
82475;SDS011;72099;43.176;76.872;2024-01-30T10:22:59;8.43;;;4.60;;
82475;SDS011;72099;43.176;76.872;2024-01-30T10:25:59;12.00;;;5.95;;
82475;SDS011;72099;43.176;76.872;2024-01-30T10:29:00;7.43;;;4.97;;
82475;SDS011;72099;43.176;76.872;2024-01-30T10:32:03;10.50;;;6.13;;
82475;SDS011;72099;43.176;76.872;2024-01-30T10:35:05;12.50;;;6.05;;
82475;SDS011;72099;43.176;76.872;2024-01-30T10:38:06;9.80;;;5.28;;
82475;SDS011;72099;43.176;76.872;2024-01-30T10:41:12;10.05;;;5.13;;
82475;SDS011;72099;43.176;76.872;2024-01-30T10:44:16;10.00;;;5.43;;
82475;SDS011;72099;43.176;76.872;2024-01-30T10:47:29;12.27;;;5.70;;
82475;SDS011;72099;43.176;76.872;2024-01-30T10:50:30;9.90;;;5.63;;
82475;SDS011;72099;43.176;76.872;2024-01-30T10:53:33;11.85;;;6.38;;
82475;SDS011;72099;43.176;76.872;2024-01-30T10:56:35;20.50;;;8.25;;
82475;SDS011;72099;43.176;76.872;2024-01-30T10:59:36;27.17;;;12.70;;
82475;SDS011;72099;43.176;76.872;2024-01-30T11:05:40;36.70;;;15.52;;
82475;SDS011;72099;43.176;76.872;2024-01-30T11:08:41;40.38;;;17.83;;
82475;SDS011;72099;43.176;76.872;2024-01-30T11:11:49;45.78;;;21.38;;
82475;SDS011;72099;43.176;76.872;2024-01-30T11:15:06;63.33;;;22.58;;
82475;SDS011;72099;43.176;76.872;2024-01-30T11:18:09;42.78;;;18.25;;
82475;SDS011;72099;43.176;76.872;2024-01-30T11:21:09;37.30;;;16.80;;
82475;SDS011;72099;43.176;76.872;2024-01-30T11:24:14;44.15;;;17.98;;
82475;SDS011;72099;43.176;76.872;2024-01-30T11:27:15;44.92;;;16.58;;
82475;SDS011;72099;43.176;76.872;2024-01-30T11:33:52;44.05;;;18.65;;
82475;SDS011;72099;43.176;76.872;2024-01-30T11:36:58;40.38;;;17.42;;
82475;SDS011;72099;43.176;76.872;2024-01-30T11:40:02;45.10;;;19.13;;
82475;SDS011;72099;43.176;76.872;2024-01-30T11:43:04;47.22;;;20.00;;
82475;SDS011;72099;43.176;76.872;2024-01-30T11:46:07;54.78;;;23.27;;
82475;SDS011;72099;43.176;76.872;2024-01-30T11:49:08;59.00;;;26.33;;
82475;SDS011;72099;43.176;76.872;2024-01-30T11:52:09;70.97;;;26.88;;
82475;SDS011;72099;43.176;76.872;2024-01-30T11:55:10;72.85;;;30.55;;
82475;SDS011;72099;43.176;76.872;2024-01-30T11:58:11;90.40;;;35.08;;
82475;SDS011;72099;43.176;76.872;2024-01-30T12:01:12;88.35;;;36.53;;
82475;SDS011;72099;43.176;76.872;2024-01-30T12:04:13;90.45;;;33.88;;
82475;SDS011;72099;43.176;76.872;2024-01-30T12:07:14;99.90;;;36.10;;
82475;SDS011;72099;43.176;76.872;2024-01-30T12:10:16;98.72;;;36.90;;
82475;SDS011;72099;43.176;76.872;2024-01-30T12:13:20;94.45;;;35.35;;
82475;SDS011;72099;43.176;76.872;2024-01-30T12:16:21;94.53;;;36.15;;
82475;SDS011;72099;43.176;76.872;2024-01-30T12:19:25;106.10;;;36.80;;
82475;SDS011;72099;43.176;76.872;2024-01-30T12:22:26;89.43;;;35.08;;
82475;SDS011;72099;43.176;76.872;2024-01-30T12:25:27;102.32;;;38.22;;
82475;SDS011;72099;43.176;76.872;2024-01-30T12:28:28;100.28;;;40.03;;
82475;SDS011;72099;43.176;76.872;2024-01-30T12:31:28;109.57;;;39.35;;
82475;SDS011;72099;43.176;76.872;2024-01-30T12:34:32;109.25;;;39.40;;
82475;SDS011;72099;43.176;76.872;2024-01-30T12:37:32;116.57;;;41.63;;
82475;SDS011;72099;43.176;76.872;2024-01-30T12:40:33;107.47;;;39.53;;
82475;SDS011;72099;43.176;76.872;2024-01-30T12:43:34;113.57;;;42.13;;
82475;SDS011;72099;43.176;76.872;2024-01-30T12:46:35;103.18;;;37.20;;
82475;SDS011;72099;43.176;76.872;2024-01-30T12:49:36;106.22;;;38.33;;
82475;SDS011;72099;43.176;76.872;2024-01-30T12:52:37;108.00;;;38.97;;
82475;SDS011;72099;43.176;76.872;2024-01-30T12:55:38;84.32;;;33.47;;
82475;SDS011;72099;43.176;76.872;2024-01-30T12:58:39;97.05;;;34.22;;
82475;SDS011;72099;43.176;76.872;2024-01-30T13:01:39;87.95;;;32.03;;
82475;SDS011;72099;43.176;76.872;2024-01-30T13:04:40;84.45;;;31.60;;
82475;SDS011;72099;43.176;76.872;2024-01-30T13:07:42;72.65;;;25.70;;
82475;SDS011;72099;43.176;76.872;2024-01-30T13:10:43;75.90;;;27.63;;
82475;SDS011;72099;43.176;76.872;2024-01-30T13:13:44;69.57;;;24.38;;
82475;SDS011;72099;43.176;76.872;2024-01-30T13:16:45;67.43;;;25.58;;
82475;SDS011;72099;43.176;76.872;2024-01-30T13:19:46;63.85;;;25.38;;
82475;SDS011;72099;43.176;76.872;2024-01-30T13:22:49;70.97;;;24.30;;
82475;SDS011;72099;43.176;76.872;2024-01-30T13:25:50;70.32;;;25.48;;
82475;SDS011;72099;43.176;76.872;2024-01-30T13:28:51;70.70;;;26.75;;
82475;SDS011;72099;43.176;76.872;2024-01-30T13:31:52;68.07;;;25.52;;
82475;SDS011;72099;43.176;76.872;2024-01-30T13:34:53;64.38;;;24.50;;
82475;SDS011;72099;43.176;76.872;2024-01-30T13:37:53;59.72;;;21.65;;
82475;SDS011;72099;43.176;76.872;2024-01-30T13:40:54;63.70;;;21.70;;
82475;SDS011;72099;43.176;76.872;2024-01-30T13:43:55;66.40;;;23.05;;
82475;SDS011;72099;43.176;76.872;2024-01-30T13:46:56;60.33;;;21.50;;
82475;SDS011;72099;43.176;76.872;2024-01-30T13:49:57;65.43;;;24.83;;
82475;SDS011;72099;43.176;76.872;2024-01-30T13:52:57;67.22;;;23.50;;
82475;SDS011;72099;43.176;76.872;2024-01-30T13:55:58;71.15;;;26.67;;
82475;SDS011;72099;43.176;76.872;2024-01-30T13:58:59;66.40;;;24.52;;
82475;SDS011;72099;43.176;76.872;2024-01-30T14:02:01;69.28;;;25.85;;
82475;SDS011;72099;43.176;76.872;2024-01-30T14:05:02;59.75;;;23.80;;
82475;SDS011;72099;43.176;76.872;2024-01-30T14:08:04;72.43;;;24.33;;
82475;SDS011;72099;43.176;76.872;2024-01-30T14:11:05;78.75;;;25.67;;
82475;SDS011;72099;43.176;76.872;2024-01-30T14:14:07;78.25;;;28.02;;
82475;SDS011;72099;43.176;76.872;2024-01-30T14:17:07;68.68;;;25.92;;
82475;SDS011;72099;43.176;76.872;2024-01-30T14:20:09;78.90;;;29.40;;
82475;SDS011;72099;43.176;76.872;2024-01-30T14:26:11;72.15;;;24.92;;
82475;SDS011;72099;43.176;76.872;2024-01-30T14:29:12;75.75;;;26.23;;
82475;SDS011;72099;43.176;76.872;2024-01-30T14:32:13;77.95;;;25.83;;
82475;SDS011;72099;43.176;76.872;2024-01-30T14:35:14;71.13;;;26.48;;
82475;SDS011;72099;43.176;76.872;2024-01-30T14:38:15;68.82;;;24.65;;
82475;SDS011;72099;43.176;76.872;2024-01-30T14:41:16;56.95;;;19.98;;
82475;SDS011;72099;43.176;76.872;2024-01-30T14:44:17;56.30;;;20.98;;
82475;SDS011;72099;43.176;76.872;2024-01-30T14:47:17;50.13;;;18.85;;
82475;SDS011;72099;43.176;76.872;2024-01-30T14:53:50;55.28;;;20.52;;
82475;SDS011;72099;43.176;76.872;2024-01-30T14:56:51;55.63;;;20.70;;
82475;SDS011;72099;43.176;76.872;2024-01-30T14:59:52;58.80;;;22.02;;
82475;SDS011;72099;43.176;76.872;2024-01-30T15:02:53;55.42;;;21.15;;
82475;SDS011;72099;43.176;76.872;2024-01-30T15:05:54;57.72;;;22.45;;
82475;SDS011;72099;43.176;76.872;2024-01-30T15:08:55;58.35;;;23.08;;
82475;SDS011;72099;43.176;76.872;2024-01-30T15:11:56;74.18;;;25.83;;
82475;SDS011;72099;43.176;76.872;2024-01-30T15:14:57;65.65;;;23.55;;
82475;SDS011;72099;43.176;76.872;2024-01-30T15:17:58;51.97;;;20.33;;
82475;SDS011;72099;43.176;76.872;2024-01-30T15:20:59;51.90;;;19.55;;
82475;SDS011;72099;43.176;76.872;2024-01-30T15:24:01;44.25;;;17.95;;
82475;SDS011;72099;43.176;76.872;2024-01-30T15:27:03;50.60;;;19.50;;
82475;SDS011;72099;43.176;76.872;2024-01-30T15:33:58;55.45;;;18.00;;
82475;SDS011;72099;43.176;76.872;2024-01-30T15:36:58;52.05;;;19.80;;
82475;SDS011;72099;43.176;76.872;2024-01-30T15:39:59;46.88;;;19.45;;
82475;SDS011;72099;43.176;76.872;2024-01-30T15:43:00;43.05;;;17.58;;
82475;SDS011;72099;43.176;76.872;2024-01-30T15:46:01;37.38;;;15.93;;
82475;SDS011;72099;43.176;76.872;2024-01-30T15:49:02;38.75;;;14.98;;
82475;SDS011;72099;43.176;76.872;2024-01-30T15:55:05;41.15;;;14.38;;
82475;SDS011;72099;43.176;76.872;2024-01-30T15:58:06;46.60;;;17.48;;
82475;SDS011;72099;43.176;76.872;2024-01-30T16:01:07;52.78;;;19.70;;
82475;SDS011;72099;43.176;76.872;2024-01-30T16:04:08;50.47;;;20.02;;
82475;SDS011;72099;43.176;76.872;2024-01-30T16:07:08;63.53;;;24.10;;
82475;SDS011;72099;43.176;76.872;2024-01-30T16:10:25;65.57;;;26.05;;
82475;SDS011;72099;43.176;76.872;2024-01-30T16:13:26;55.08;;;22.23;;
82475;SDS011;72099;43.176;76.872;2024-01-30T16:16:26;60.00;;;23.42;;
82475;SDS011;72099;43.176;76.872;2024-01-30T16:19:37;55.72;;;21.10;;
82475;SDS011;72099;43.176;76.872;2024-01-30T16:22:38;59.97;;;21.25;;
82475;SDS011;72099;43.176;76.872;2024-01-30T16:25:39;46.55;;;18.10;;
82475;SDS011;72099;43.176;76.872;2024-01-30T16:28:40;41.28;;;16.90;;
82475;SDS011;72099;43.176;76.872;2024-01-30T16:31:40;41.38;;;17.20;;
82475;SDS011;72099;43.176;76.872;2024-01-30T16:34:41;37.53;;;15.20;;
82475;SDS011;72099;43.176;76.872;2024-01-30T16:37:43;43.60;;;16.02;;
82475;SDS011;72099;43.176;76.872;2024-01-30T16:44:28;33.67;;;13.45;;
82475;SDS011;72099;43.176;76.872;2024-01-30T16:47:29;35.10;;;13.30;;
82475;SDS011;72099;43.176;76.872;2024-01-30T16:50:30;32.25;;;12.85;;
82475;SDS011;72099;43.176;76.872;2024-01-30T16:53:31;35.08;;;13.13;;
82475;SDS011;72099;43.176;76.872;2024-01-30T16:56:32;28.33;;;11.02;;
82475;SDS011;72099;43.176;76.872;2024-01-30T16:59:32;28.88;;;11.00;;
82475;SDS011;72099;43.176;76.872;2024-01-30T17:02:33;37.05;;;12.65;;
82475;SDS011;72099;43.176;76.872;2024-01-30T17:05:34;28.10;;;10.90;;
82475;SDS011;72099;43.176;76.872;2024-01-30T17:08:35;31.70;;;11.93;;
82475;SDS011;72099;43.176;76.872;2024-01-30T17:11:36;23.60;;;11.35;;
82475;SDS011;72099;43.176;76.872;2024-01-30T17:14:38;29.85;;;12.15;;
82475;SDS011;72099;43.176;76.872;2024-01-30T17:17:41;27.55;;;10.25;;
82475;SDS011;72099;43.176;76.872;2024-01-30T17:24:34;25.85;;;10.07;;
82475;SDS011;72099;43.176;76.872;2024-01-30T17:27:35;28.23;;;12.35;;
82475;SDS011;72099;43.176;76.872;2024-01-30T17:30:36;41.05;;;18.33;;
82475;SDS011;72099;43.176;76.872;2024-01-30T17:33:37;58.63;;;23.52;;
82475;SDS011;72099;43.176;76.872;2024-01-30T17:36:38;71.65;;;28.90;;
82475;SDS011;72099;43.176;76.872;2024-01-30T17:43:10;79.97;;;30.33;;
82475;SDS011;72099;43.176;76.872;2024-01-30T17:46:11;74.60;;;31.95;;
82475;SDS011;72099;43.176;76.872;2024-01-30T17:49:13;82.65;;;32.03;;
82475;SDS011;72099;43.176;76.872;2024-01-30T17:52:13;78.72;;;32.85;;
82475;SDS011;72099;43.176;76.872;2024-01-30T17:58:16;71.60;;;27.73;;
82475;SDS011;72099;43.176;76.872;2024-01-30T18:01:17;72.03;;;30.08;;
82475;SDS011;72099;43.176;76.872;2024-01-30T18:04:18;71.68;;;28.75;;
82475;SDS011;72099;43.176;76.872;2024-01-30T18:07:20;70.80;;;28.42;;
82475;SDS011;72099;43.176;76.872;2024-01-30T18:13:43;88.35;;;33.95;;
82475;SDS011;72099;43.176;76.872;2024-01-30T18:16:44;74.90;;;28.85;;
82475;SDS011;72099;43.176;76.872;2024-01-30T18:19:45;66.97;;;25.98;;
82475;SDS011;72099;43.176;76.872;2024-01-30T18:22:46;67.45;;;26.08;;
82475;SDS011;72099;43.176;76.872;2024-01-30T18:25:46;63.38;;;24.50;;
82475;SDS011;72099;43.176;76.872;2024-01-30T18:28:48;68.65;;;26.13;;
82475;SDS011;72099;43.176;76.872;2024-01-30T18:31:49;63.70;;;26.27;;
82475;SDS011;72099;43.176;76.872;2024-01-30T18:34:50;66.47;;;25.95;;